createdAt,value
2018-10-21T06:28:08.582Z,11.47
2018-10-21T06:30:37.499Z,12.30
2018-10-21T06:33:06.574Z,13.20
2018-10-21T06:35:35.412Z,10.83
2018-10-21T06:38:04.203Z,12.93
2018-10-21T06:40:32.993Z,11.03
2018-10-21T06:43:01.757Z,11.40
2018-10-21T06:45:30.647Z,12.90
2018-10-21T06:47:59.402Z,12.20
2018-10-21T06:50:28.331Z,13.20
2018-10-21T06:52:57.107Z,13.43
2018-10-21T06:55:25.939Z,12.23
2018-10-21T06:57:54.720Z,14.23
2018-10-21T07:00:25.463Z,13.20
2018-10-21T07:02:54.225Z,13.87
2018-10-21T07:05:40.750Z,14.37
2018-10-21T07:08:09.592Z,14.27
2018-10-21T07:10:38.380Z,12.87
2018-10-21T07:13:07.167Z,13.03
2018-10-21T07:15:35.975Z,13.10
2018-10-21T07:18:04.738Z,13.67
2018-10-21T07:20:33.519Z,14.83
2018-10-21T07:23:02.297Z,12.60
2018-10-21T07:25:31.172Z,13.50
2018-10-21T07:28:01.028Z,11.07
2018-10-21T07:30:29.734Z,14.20
2018-10-21T07:32:58.556Z,12.20
2018-10-21T07:35:27.338Z,11.80
2018-10-21T07:37:56.136Z,13.33
2018-10-21T07:40:24.925Z,11.93
2018-10-21T07:42:53.802Z,11.03
2018-10-21T07:45:22.661Z,12.47
2018-10-21T07:47:51.629Z,13.40
2018-10-21T07:50:20.341Z,12.90
2018-10-21T07:52:49.143Z,13.37
2018-10-21T07:55:17.973Z,14.93
2018-10-21T07:57:48.311Z,13.23
2018-10-21T08:00:17.394Z,14.50
2018-10-21T08:02:46.255Z,12.83
2018-10-21T08:05:33.163Z,13.93
2018-10-21T08:08:09.889Z,13.23
2018-10-21T08:10:38.802Z,13.90
2018-10-21T08:13:09.082Z,13.40
2018-10-21T08:15:37.872Z,14.83
2018-10-21T08:18:06.927Z,13.17
2018-10-21T08:20:36.187Z,12.87
2018-10-21T08:23:04.879Z,14.47
2018-10-21T08:25:33.747Z,13.57
2018-10-21T08:28:02.721Z,12.10
2018-10-21T08:30:31.456Z,11.50
2018-10-21T08:33:00.306Z,10.73
2018-10-21T08:35:29.099Z,10.30
2018-10-21T08:37:57.987Z,12.93
2018-10-21T08:40:26.751Z,13.60
2018-10-21T08:42:56.601Z,13.00
2018-10-21T08:45:25.637Z,12.70
2018-10-21T08:47:54.551Z,13.07
2018-10-21T08:50:23.342Z,12.83
2018-10-21T08:52:52.484Z,13.47
2018-10-21T08:55:21.271Z,13.87
2018-10-21T08:57:51.876Z,13.60
2018-10-21T09:00:21.007Z,14.60
2018-10-21T09:02:49.846Z,13.83
2018-10-21T09:05:20.549Z,15.33
2018-10-21T09:07:49.712Z,16.93
2018-10-21T09:10:19.018Z,15.60
2018-10-21T09:12:47.959Z,12.07
2018-10-21T09:15:18.000Z,11.67
2018-10-21T09:17:46.703Z,10.40
2018-10-21T09:20:19.308Z,11.70
2018-10-21T09:22:48.168Z,10.30
2018-10-21T09:25:16.975Z,13.43
2018-10-21T09:27:46.008Z,13.47
2018-10-21T09:30:16.062Z,16.23
2018-10-21T09:32:44.847Z,16.40
2018-10-21T09:35:17.663Z,16.07
2018-10-21T09:37:46.487Z,16.12
2018-10-21T09:40:19.559Z,15.93
2018-10-21T09:42:48.931Z,16.47
2018-10-21T09:45:19.042Z,16.23
2018-10-21T09:47:47.873Z,14.43
2018-10-21T09:50:16.739Z,16.97
2018-10-21T09:52:45.602Z,16.73
2018-10-21T09:55:21.696Z,18.77
2018-10-21T09:57:50.912Z,17.80
2018-10-21T10:00:37.281Z,20.30
2018-10-21T10:03:09.228Z,19.97
2018-10-21T10:05:38.195Z,17.87
2018-10-21T10:08:07.004Z,20.52
2018-10-21T10:10:35.793Z,20.00
2018-10-21T10:13:04.642Z,17.77
2018-10-21T10:15:33.382Z,18.42
2018-10-21T10:18:03.194Z,21.17
2018-10-21T10:20:32.014Z,20.80
2018-10-21T10:23:00.871Z,18.77
2018-10-21T10:25:29.730Z,16.80
2018-10-21T10:27:58.571Z,19.37
2018-10-21T10:30:27.465Z,19.90
2018-10-21T10:32:56.147Z,22.67
2018-10-21T10:35:25.039Z,23.52
2018-10-21T10:37:53.806Z,24.72
2018-10-21T10:40:23.635Z,24.03
2018-10-21T10:42:52.393Z,24.82
2018-10-21T10:45:21.255Z,23.97
2018-10-21T10:47:50.023Z,18.63
2018-10-21T10:50:18.903Z,21.97
2018-10-21T10:52:47.708Z,21.03
2018-10-21T10:55:16.535Z,20.20
2018-10-21T10:57:45.259Z,18.57
2018-10-21T11:00:15.635Z,16.60
2018-10-21T11:02:44.362Z,17.23
2018-10-21T11:05:15.203Z,15.67
2018-10-21T11:07:43.980Z,15.53
2018-10-21T11:10:12.963Z,18.62
2018-10-21T11:12:41.635Z,16.97
2018-10-21T11:15:10.476Z,18.67
2018-10-21T11:17:39.253Z,17.30
2018-10-21T11:20:08.075Z,17.20
2018-10-21T11:22:36.989Z,18.17
2018-10-21T11:25:07.328Z,18.20
2018-10-21T11:27:36.078Z,17.48
2018-10-21T11:30:05.919Z,16.97
2018-10-21T11:32:34.713Z,19.83
2018-10-21T11:35:03.536Z,19.73
2018-10-21T11:37:32.515Z,18.50
2018-10-21T11:40:01.282Z,19.10
2018-10-21T11:42:30.189Z,19.00
2018-10-21T11:44:58.999Z,18.50
2018-10-21T11:47:27.780Z,19.33
2018-10-21T11:49:56.576Z,17.40
2018-10-21T11:52:25.920Z,15.87
2018-10-21T11:54:54.803Z,16.77
2018-10-21T11:57:24.195Z,15.60
2018-10-21T11:59:53.030Z,15.27
2018-10-21T12:02:21.895Z,14.03
2018-10-21T12:04:50.757Z,14.80
2018-10-21T12:07:19.599Z,12.67
2018-10-21T12:09:48.322Z,13.63
2018-10-21T12:12:17.843Z,13.70
2018-10-21T12:14:46.632Z,13.80
2018-10-21T12:17:15.406Z,13.40
2018-10-21T12:19:46.322Z,13.87
2018-10-21T12:22:15.197Z,13.30
2018-10-21T12:24:43.971Z,13.13
2018-10-21T12:27:14.162Z,15.00
2018-10-21T12:29:42.970Z,14.23
2018-10-21T12:32:11.896Z,14.53
2018-10-21T12:34:40.718Z,15.23
2018-10-21T12:37:09.620Z,11.47
2018-10-21T12:39:38.357Z,10.93
2018-10-21T12:42:07.183Z,11.37
2018-10-21T12:44:36.201Z,11.63
2018-10-21T12:47:05.085Z,12.03
2018-10-21T12:49:33.991Z,12.57
2018-10-21T12:52:02.773Z,11.67
2018-10-21T12:54:31.722Z,11.90
2018-10-21T12:57:00.429Z,11.00
2018-10-21T12:59:29.266Z,8.00
2018-10-21T13:01:58.212Z,7.60
2018-10-21T13:04:27.079Z,5.30
2018-10-21T13:06:55.893Z,7.93
2018-10-21T13:09:25.779Z,9.00
2018-10-21T13:11:54.666Z,9.10
2018-10-21T13:14:23.576Z,8.53
2018-10-21T13:16:52.483Z,8.70
2018-10-21T13:19:21.294Z,10.20
2018-10-21T13:21:50.144Z,11.33
2018-10-21T13:26:10.061Z,10.13
2018-10-21T13:28:39.115Z,10.97
2018-10-21T13:31:07.963Z,9.40
2018-10-21T13:33:36.815Z,9.97
2018-10-21T13:36:06.225Z,9.43
2018-10-21T13:38:35.062Z,9.33
2018-10-21T13:41:03.886Z,9.17
2018-10-21T13:43:32.680Z,10.00
2018-10-21T13:46:01.728Z,10.10
2018-10-21T13:48:30.422Z,10.17
2018-10-21T13:50:59.235Z,9.83
2018-10-21T13:53:28.147Z,11.20
2018-10-21T13:55:57.954Z,11.47
2018-10-21T13:58:26.750Z,10.30
2018-10-21T14:00:55.783Z,10.70
2018-10-21T14:03:24.552Z,12.57
2018-10-21T14:05:53.626Z,12.53
2018-10-21T14:08:22.414Z,12.40
2018-10-21T14:10:51.261Z,12.43
2018-10-21T14:13:20.020Z,10.97
2018-10-21T14:15:48.903Z,11.20
2018-10-21T14:18:17.688Z,14.97
2018-10-21T14:20:46.567Z,14.67
2018-10-21T14:23:15.400Z,14.03
2018-10-21T14:25:44.218Z,14.77
2018-10-21T14:28:13.140Z,12.70
2018-10-21T14:30:41.934Z,12.63
2018-10-21T14:33:10.818Z,14.27
2018-10-21T14:35:39.545Z,14.83
2018-10-21T14:38:08.438Z,15.60
2018-10-21T14:40:37.134Z,14.93
2018-10-21T14:43:06.309Z,13.43
2018-10-21T14:45:35.312Z,13.60
2018-10-21T14:48:04.438Z,14.80
2018-10-21T14:50:33.181Z,15.30
2018-10-21T14:53:02.235Z,15.83
2018-10-21T14:55:31.092Z,13.13
2018-10-21T14:57:59.882Z,13.77
2018-10-21T15:00:28.856Z,14.83
2018-10-21T15:02:57.670Z,13.47
2018-10-21T15:05:26.380Z,13.13
2018-10-21T15:07:55.521Z,13.33
2018-10-21T15:10:24.333Z,13.37
2018-10-21T15:12:53.275Z,12.83
2018-10-21T15:15:22.091Z,13.77
2018-10-21T15:17:50.889Z,13.63
2018-10-21T15:20:19.660Z,13.90
2018-10-21T15:22:49.569Z,14.17
2018-10-21T15:25:18.275Z,14.17
2018-10-21T15:27:47.192Z,14.63
2018-10-21T15:30:17.064Z,13.57
2018-10-21T15:32:45.765Z,14.07
2018-10-21T15:35:16.612Z,14.30
2018-10-21T15:37:45.521Z,14.53
2018-10-21T15:40:14.535Z,13.67
2018-10-21T15:42:43.336Z,13.97
2018-10-21T15:45:12.914Z,14.53
2018-10-21T15:47:41.694Z,14.30
2018-10-21T15:50:11.532Z,14.17
2018-10-21T15:52:40.583Z,14.63
2018-10-21T15:55:09.965Z,14.00
2018-10-21T15:57:40.785Z,14.70
2018-10-21T16:00:10.680Z,14.77
2018-10-21T16:02:39.500Z,13.93
2018-10-21T16:05:08.809Z,14.67
2018-10-21T16:07:37.701Z,14.20
2018-10-21T16:10:07.519Z,14.83
2018-10-21T16:12:36.630Z,14.47
2018-10-21T16:15:06.291Z,13.97
2018-10-21T16:17:35.263Z,13.83
2018-10-21T16:20:04.188Z,14.47
2018-10-21T16:22:33.694Z,14.67
2018-10-21T16:25:02.718Z,14.50
2018-10-21T16:27:31.619Z,14.80
2018-10-21T16:30:01.606Z,15.20
2018-10-21T16:32:30.494Z,13.83
2018-10-21T16:34:59.345Z,14.57
2018-10-21T16:37:28.257Z,14.47
2018-10-21T16:39:57.097Z,14.73
2018-10-21T16:42:26.030Z,15.43
2018-10-21T16:44:54.931Z,14.80
2018-10-21T16:47:23.818Z,15.00
2018-10-21T16:49:52.790Z,14.40
2018-10-21T16:52:21.696Z,17.50
2018-10-21T16:54:51.649Z,16.83
2018-10-21T16:57:20.499Z,18.13
2018-10-21T16:59:49.344Z,18.30
2018-10-21T17:02:18.216Z,17.67
2018-10-21T17:04:47.310Z,18.60
2018-10-21T17:07:16.246Z,18.60
2018-10-21T17:09:45.339Z,13.83
2018-10-21T17:12:14.016Z,16.93
2018-10-21T17:14:42.840Z,15.90
2018-10-21T17:17:11.726Z,16.97
2018-10-21T17:19:40.522Z,17.83
2018-10-21T17:22:09.222Z,16.80
2018-10-21T17:24:38.113Z,18.10
2018-10-21T17:27:06.890Z,17.80
2018-10-21T17:29:35.724Z,18.10
2018-10-21T17:32:04.613Z,17.27
2018-10-21T17:34:33.428Z,17.57
2018-10-21T17:37:02.346Z,17.27
2018-10-21T17:39:31.157Z,16.03
2018-10-21T17:41:59.987Z,18.27
2018-10-21T17:44:28.772Z,18.17
2018-10-21T17:46:57.608Z,18.37
2018-10-21T17:49:26.401Z,17.50
2018-10-21T17:51:55.195Z,18.60
2018-10-21T17:54:23.967Z,17.93
2018-10-21T17:57:02.196Z,18.27
2018-10-21T17:59:31.012Z,21.97
2018-10-21T18:01:59.830Z,20.23
2018-10-21T18:04:29.107Z,20.77
2018-10-21T18:06:57.894Z,20.10
2018-10-21T18:09:26.644Z,19.93
2018-10-21T18:11:55.422Z,19.83
2018-10-21T18:14:24.210Z,19.50
2018-10-21T18:16:53.081Z,19.90
2018-10-21T18:19:21.961Z,20.57
2018-10-21T18:21:50.837Z,20.70
2018-10-21T18:24:19.680Z,19.23
2018-10-21T18:26:48.567Z,20.23
2018-10-21T18:29:17.436Z,19.27
2018-10-21T18:31:46.242Z,19.70
2018-10-21T18:34:15.382Z,19.27
2018-10-21T18:36:44.505Z,19.33
2018-10-21T18:39:13.450Z,20.83
2018-10-21T18:41:42.257Z,20.80
2018-10-21T18:44:11.138Z,20.73
2018-10-21T18:46:40.463Z,22.43
2018-10-21T18:49:09.303Z,22.10
2018-10-21T18:51:38.363Z,21.53
2018-10-21T18:54:07.197Z,19.43
2018-10-21T18:56:36.113Z,21.47
2018-10-21T18:59:05.135Z,21.30
2018-10-21T19:01:33.953Z,19.97
2018-10-21T19:04:02.831Z,19.67
2018-10-21T19:06:31.748Z,20.63
2018-10-21T19:09:00.664Z,19.83
2018-10-21T19:11:29.507Z,22.10
2018-10-21T19:13:58.397Z,21.07
2018-10-21T19:16:27.220Z,21.73
2018-10-21T19:18:56.201Z,21.00
2018-10-21T19:21:25.013Z,21.97
2018-10-21T19:23:53.927Z,21.20
2018-10-21T19:26:22.763Z,22.37
2018-10-21T19:28:53.675Z,21.80
2018-10-21T19:31:22.541Z,22.30
2018-10-21T19:33:51.597Z,21.63
2018-10-21T19:36:20.634Z,20.97
2018-10-21T19:38:49.531Z,20.83
2018-10-21T19:41:18.477Z,20.93
2018-10-21T19:43:47.336Z,22.30
2018-10-21T19:46:16.257Z,22.00
2018-10-21T19:48:45.169Z,20.83
2018-10-21T19:51:13.943Z,20.10
2018-10-21T19:53:44.832Z,21.20
2018-10-21T19:56:13.817Z,20.33
2018-10-21T19:58:43.944Z,22.57
2018-10-21T20:01:13.248Z,22.20
2018-10-21T20:03:42.012Z,21.63
2018-10-21T20:06:11.105Z,20.43
2018-10-21T20:08:40.279Z,21.63
2018-10-21T20:11:09.097Z,20.67
2018-10-21T20:13:38.055Z,19.57
2018-10-21T20:16:07.125Z,20.37
2018-10-21T20:18:36.880Z,19.50
2018-10-21T20:21:05.843Z,18.73
2018-10-21T20:23:34.654Z,19.10
2018-10-21T20:26:03.444Z,18.03
2018-10-21T20:28:32.244Z,20.83
2018-10-21T20:31:01.113Z,18.77
2018-10-21T20:33:29.810Z,18.70
2018-10-21T20:35:58.638Z,19.17
2018-10-21T20:38:27.542Z,18.17
2018-10-21T20:40:56.210Z,18.40
2018-10-21T20:43:24.980Z,17.20
2018-10-21T20:45:53.921Z,16.83
2018-10-21T20:48:22.649Z,17.00
2018-10-21T20:50:51.874Z,16.60
2018-10-21T20:53:20.787Z,16.07
2018-10-21T20:55:50.966Z,17.47
2018-10-21T20:58:19.863Z,17.63
2018-10-21T21:00:49.687Z,17.97
2018-10-21T21:03:18.659Z,16.27
2018-10-21T21:05:47.550Z,15.17
2018-10-21T21:08:16.477Z,15.40
2018-10-21T21:10:45.197Z,15.00
2018-10-21T21:13:14.006Z,15.20
2018-10-21T21:15:43.946Z,14.77
2018-10-21T21:18:12.799Z,15.20
2018-10-21T21:20:41.730Z,15.47
2018-10-21T21:23:10.479Z,15.37
2018-10-21T21:25:39.389Z,14.37
2018-10-21T21:28:08.765Z,13.57
2018-10-21T21:30:37.902Z,15.43
2018-10-21T21:33:06.955Z,15.57
2018-10-21T21:35:36.365Z,15.93
2018-10-21T21:38:05.389Z,14.70
2018-10-21T21:40:35.287Z,16.03
2018-10-21T21:43:04.168Z,15.20
2018-10-21T21:45:33.340Z,15.70
2018-10-21T21:48:02.537Z,15.03
2018-10-21T21:50:32.448Z,15.47
2018-10-21T21:53:01.268Z,13.83
2018-10-21T21:55:30.101Z,14.60
2018-10-21T21:57:58.988Z,15.30
2018-10-21T22:00:27.829Z,16.13
2018-10-21T22:02:56.639Z,14.03
2018-10-21T22:05:25.543Z,14.13
2018-10-21T22:07:54.467Z,14.97
2018-10-21T22:10:23.263Z,13.27
2018-10-21T22:12:52.151Z,14.20
2018-10-21T22:15:20.971Z,14.23
2018-10-21T22:17:50.282Z,15.67
2018-10-21T22:20:19.169Z,14.10
2018-10-21T22:22:48.037Z,14.53
2018-10-21T22:25:16.904Z,13.63
2018-10-21T22:27:45.814Z,13.50
2018-10-21T22:30:14.715Z,13.77
2018-10-21T22:32:46.047Z,14.53
2018-10-21T22:35:14.946Z,14.40
2018-10-21T22:37:43.758Z,14.60
2018-10-21T22:40:12.722Z,14.13
2018-10-21T22:42:41.523Z,14.70
2018-10-21T22:45:11.037Z,14.93
2018-10-21T22:47:40.170Z,14.47
2018-10-21T22:50:09.829Z,14.43
2018-10-21T22:52:38.648Z,14.13
2018-10-21T22:55:07.829Z,14.03
2018-10-21T22:57:36.722Z,14.77
2018-10-21T23:00:06.135Z,14.93
2018-10-21T23:02:35.002Z,15.00
2018-10-21T23:05:03.768Z,14.67
2018-10-21T23:07:32.592Z,15.47
2018-10-21T23:10:11.303Z,14.50
2018-10-21T23:12:39.912Z,15.70
2018-10-21T23:15:08.771Z,15.10
2018-10-21T23:17:37.691Z,14.03
2018-10-21T23:20:07.088Z,14.33
2018-10-21T23:22:35.902Z,14.63
2018-10-21T23:25:06.193Z,14.23
2018-10-21T23:27:34.960Z,14.90
2018-10-21T23:30:03.877Z,15.03
2018-10-21T23:32:33.672Z,13.67
2018-10-21T23:35:02.429Z,15.73
2018-10-21T23:37:31.288Z,15.00
2018-10-21T23:40:00.145Z,14.03
2018-10-21T23:42:29.194Z,14.13
2018-10-21T23:44:58.155Z,13.97
2018-10-21T23:47:28.966Z,16.13
2018-10-21T23:49:57.726Z,14.73
2018-10-21T23:52:27.513Z,13.60
2018-10-21T23:54:56.293Z,13.93
2018-10-21T23:57:25.196Z,15.43
2018-10-21T23:59:54.034Z,15.07
